Aérodrome :
LOGIN :

S'inscrire | Disclaimer

   EN    FR    IT 

 










Légende :    VFR   VFR Marginal   IFR   IFR Intensif   IFR Très Intensif
Visi : 
Plafond : 
>= 8 km
>= 3000ft
5 à 8 km
1000 à 3000 ft
1500m à 5 km
500 à 1000 ft
800 à 1500m
200 à 500 ft
< 800m
< 200 ft
Symboles :   Orages  Brouillard  Fortes neiges  Fortes précipitations  Vent > 20 kt
SIGMETs :   Divers  Orages  Givrage  Turbulence  Onde Orograph.  Cendres Volcan.







- Altitude de l'aérodrome : 1084 ft
- Code IATA : EPL
- Voir les cartes d'approche


LFSG - Épinal-Mirecourt

DERNIER METAR :
  • 141230Z AUTO 22018KT 9999 SCT034 BKN040 BKN056 06/02 Q1001

METARs EXPIRÉS :
  • 141200Z AUTO 23016KT 9999 FEW032 BKN038 BKN066 06/01 Q1002
  • 141130Z AUTO 23019KT 9999 FEW028 BKN034 BKN190 06/01 Q1002
  • 141100Z AUTO 23018KT 9999 FEW027 SCT190 06/01 Q1003
  • 141030Z AUTO 23019KT 9999 FEW031 05/01 Q1003
  • 141000Z AUTO 23016KT 9999 FEW026 05/01 Q1003

TAF N/A
Pas de NOTAMs connus pour ce terrain.



MET'MAP, la Météo Aéronautique d'un coup d'oeil ! - Copyright ORBIFLY Décembre 2007 - Disclaimer

ORBIFLY MET'MAP TEAM :

Programmation & Développement : Alexandra Zaïnal
Conception & Développement : Baudouin d'Aumeries
Co-Programmation & Développement : Marc-Olivier Méhu
Soutien technique & logistique : Manuel Goepfert

Contact : metmap@orbifly.com




SOURCES & CREDITS :

   NOAA